sensor_id;sensor_type;location;lat;lon;timestamp;P1;durP1;ratioP1;P2;durP2;ratioP2
72573;SDS011;60603;52.548;13.420;2023-04-24T00:00:01;4.90;;;3.08;;
72573;SDS011;60603;52.548;13.420;2023-04-24T00:02:31;6.80;;;3.22;;
72573;SDS011;60603;52.548;13.420;2023-04-24T00:04:58;5.97;;;3.55;;
72573;SDS011;60603;52.548;13.420;2023-04-24T00:07:28;7.63;;;3.80;;
72573;SDS011;60603;52.548;13.420;2023-04-24T00:09:54;7.72;;;3.13;;
72573;SDS011;60603;52.548;13.420;2023-04-24T00:12:20;6.13;;;3.25;;
72573;SDS011;60603;52.548;13.420;2023-04-24T00:14:46;6.20;;;3.22;;
72573;SDS011;60603;52.548;13.420;2023-04-24T00:17:12;5.72;;;3.15;;
72573;SDS011;60603;52.548;13.420;2023-04-24T00:19:38;5.65;;;3.03;;
72573;SDS011;60603;52.548;13.420;2023-04-24T00:22:03;5.40;;;3.17;;
72573;SDS011;60603;52.548;13.420;2023-04-24T00:24:29;6.82;;;3.85;;
72573;SDS011;60603;52.548;13.420;2023-04-24T00:26:55;6.45;;;4.15;;
72573;SDS011;60603;52.548;13.420;2023-04-24T00:29:21;6.40;;;3.70;;
72573;SDS011;60603;52.548;13.420;2023-04-24T00:31:46;6.60;;;3.78;;
72573;SDS011;60603;52.548;13.420;2023-04-24T00:34:12;6.95;;;3.67;;
72573;SDS011;60603;52.548;13.420;2023-04-24T00:36:38;6.28;;;3.45;;
72573;SDS011;60603;52.548;13.420;2023-04-24T00:39:03;5.72;;;3.50;;
72573;SDS011;60603;52.548;13.420;2023-04-24T00:41:29;8.85;;;4.10;;
72573;SDS011;60603;52.548;13.420;2023-04-24T00:43:55;5.65;;;3.80;;
72573;SDS011;60603;52.548;13.420;2023-04-24T00:46:21;6.03;;;3.63;;
72573;SDS011;60603;52.548;13.420;2023-04-24T00:48:46;6.40;;;3.72;;
72573;SDS011;60603;52.548;13.420;2023-04-24T00:51:12;6.05;;;3.47;;
72573;SDS011;60603;52.548;13.420;2023-04-24T00:53:38;9.43;;;5.15;;
72573;SDS011;60603;52.548;13.420;2023-04-24T00:56:04;6.50;;;3.53;;
72573;SDS011;60603;52.548;13.420;2023-04-24T00:58:30;6.30;;;3.47;;
72573;SDS011;60603;52.548;13.420;2023-04-24T01:00:56;6.47;;;3.75;;
72573;SDS011;60603;52.548;13.420;2023-04-24T01:03:24;6.97;;;3.53;;
72573;SDS011;60603;52.548;13.420;2023-04-24T01:05:52;6.60;;;3.55;;
72573;SDS011;60603;52.548;13.420;2023-04-24T01:08:18;6.25;;;3.75;;
72573;SDS011;60603;52.548;13.420;2023-04-24T01:10:44;7.63;;;3.95;;
72573;SDS011;60603;52.548;13.420;2023-04-24T01:13:11;7.00;;;3.75;;
72573;SDS011;60603;52.548;13.420;2023-04-24T01:15:37;6.13;;;3.80;;
72573;SDS011;60603;52.548;13.420;2023-04-24T01:18:02;7.20;;;4.15;;
72573;SDS011;60603;52.548;13.420;2023-04-24T01:20:28;6.68;;;4.05;;
72573;SDS011;60603;52.548;13.420;2023-04-24T01:22:55;6.00;;;3.75;;
72573;SDS011;60603;52.548;13.420;2023-04-24T01:25:22;7.05;;;4.00;;
72573;SDS011;60603;52.548;13.420;2023-04-24T01:27:48;6.55;;;4.03;;
72573;SDS011;60603;52.548;13.420;2023-04-24T01:30:14;7.13;;;3.90;;
72573;SDS011;60603;52.548;13.420;2023-04-24T01:32:39;6.75;;;3.95;;
72573;SDS011;60603;52.548;13.420;2023-04-24T01:35:06;6.82;;;3.90;;
72573;SDS011;60603;52.548;13.420;2023-04-24T01:37:34;7.85;;;4.10;;
72573;SDS011;60603;52.548;13.420;2023-04-24T01:39:59;7.80;;;3.88;;
72573;SDS011;60603;52.548;13.420;2023-04-24T01:42:25;7.13;;;3.33;;
72573;SDS011;60603;52.548;13.420;2023-04-24T01:44:52;6.78;;;4.07;;
72573;SDS011;60603;52.548;13.420;2023-04-24T01:47:17;7.80;;;4.40;;
72573;SDS011;60603;52.548;13.420;2023-04-24T01:49:43;5.60;;;3.42;;
72573;SDS011;60603;52.548;13.420;2023-04-24T01:52:10;8.75;;;4.10;;
72573;SDS011;60603;52.548;13.420;2023-04-24T01:54:36;8.75;;;4.75;;
72573;SDS011;60603;52.548;13.420;2023-04-24T01:57:02;6.93;;;4.05;;
72573;SDS011;60603;52.548;13.420;2023-04-24T01:59:28;7.22;;;4.35;;
72573;SDS011;60603;52.548;13.420;2023-04-24T02:01:54;8.27;;;4.20;;
72573;SDS011;60603;52.548;13.420;2023-04-24T02:04:19;8.20;;;4.57;;
72573;SDS011;60603;52.548;13.420;2023-04-24T02:06:45;8.57;;;4.47;;
72573;SDS011;60603;52.548;13.420;2023-04-24T02:09:11;8.90;;;4.40;;
72573;SDS011;60603;52.548;13.420;2023-04-24T02:11:36;7.38;;;4.38;;
72573;SDS011;60603;52.548;13.420;2023-04-24T02:14:02;9.68;;;4.43;;
72573;SDS011;60603;52.548;13.420;2023-04-24T02:16:28;7.78;;;4.45;;
72573;SDS011;60603;52.548;13.420;2023-04-24T02:18:58;8.40;;;4.70;;
72573;SDS011;60603;52.548;13.420;2023-04-24T02:21:23;6.72;;;4.13;;
72573;SDS011;60603;52.548;13.420;2023-04-24T02:23:49;7.28;;;4.60;;
72573;SDS011;60603;52.548;13.420;2023-04-24T02:26:15;7.65;;;4.50;;
72573;SDS011;60603;52.548;13.420;2023-04-24T02:28:41;9.70;;;5.00;;
72573;SDS011;60603;52.548;13.420;2023-04-24T02:31:07;9.52;;;4.60;;
72573;SDS011;60603;52.548;13.420;2023-04-24T02:33:33;6.57;;;4.22;;
72573;SDS011;60603;52.548;13.420;2023-04-24T02:35:58;8.70;;;4.10;;
72573;SDS011;60603;52.548;13.420;2023-04-24T02:38:24;9.80;;;5.25;;
72573;SDS011;60603;52.548;13.420;2023-04-24T02:40:50;9.73;;;4.97;;
72573;SDS011;60603;52.548;13.420;2023-04-24T02:43:16;7.25;;;4.72;;
72573;SDS011;60603;52.548;13.420;2023-04-24T02:45:41;8.15;;;4.72;;
72573;SDS011;60603;52.548;13.420;2023-04-24T02:48:07;8.82;;;4.47;;
72573;SDS011;60603;52.548;13.420;2023-04-24T02:50:33;8.32;;;4.78;;
72573;SDS011;60603;52.548;13.420;2023-04-24T02:52:59;7.72;;;4.53;;
72573;SDS011;60603;52.548;13.420;2023-04-24T02:55:24;8.45;;;4.60;;
72573;SDS011;60603;52.548;13.420;2023-04-24T02:57:50;8.10;;;4.53;;
72573;SDS011;60603;52.548;13.420;2023-04-24T03:00:16;9.38;;;5.57;;
72573;SDS011;60603;52.548;13.420;2023-04-24T03:02:42;9.52;;;5.38;;
72573;SDS011;60603;52.548;13.420;2023-04-24T03:05:08;10.88;;;4.97;;
72573;SDS011;60603;52.548;13.420;2023-04-24T03:07:34;8.52;;;5.10;;
72573;SDS011;60603;52.548;13.420;2023-04-24T03:10:00;8.15;;;4.55;;
72573;SDS011;60603;52.548;13.420;2023-04-24T03:12:26;7.05;;;4.70;;
72573;SDS011;60603;52.548;13.420;2023-04-24T03:14:51;8.05;;;4.53;;
72573;SDS011;60603;52.548;13.420;2023-04-24T03:17:17;8.70;;;5.15;;
72573;SDS011;60603;52.548;13.420;2023-04-24T03:19:43;7.70;;;4.60;;
72573;SDS011;60603;52.548;13.420;2023-04-24T03:22:08;10.52;;;5.00;;
72573;SDS011;60603;52.548;13.420;2023-04-24T03:24:34;8.23;;;4.53;;
72573;SDS011;60603;52.548;13.420;2023-04-24T03:27:00;8.13;;;5.05;;
72573;SDS011;60603;52.548;13.420;2023-04-24T03:29:25;8.68;;;5.05;;
72573;SDS011;60603;52.548;13.420;2023-04-24T03:31:51;8.00;;;4.72;;
72573;SDS011;60603;52.548;13.420;2023-04-24T03:34:17;9.82;;;5.45;;
72573;SDS011;60603;52.548;13.420;2023-04-24T03:36:43;8.18;;;5.10;;
72573;SDS011;60603;52.548;13.420;2023-04-24T03:39:09;7.32;;;4.30;;
72573;SDS011;60603;52.548;13.420;2023-04-24T03:41:35;9.80;;;5.00;;
72573;SDS011;60603;52.548;13.420;2023-04-24T03:44:01;8.52;;;5.45;;
72573;SDS011;60603;52.548;13.420;2023-04-24T03:46:26;9.90;;;5.35;;
72573;SDS011;60603;52.548;13.420;2023-04-24T03:48:52;7.65;;;4.78;;
72573;SDS011;60603;52.548;13.420;2023-04-24T03:51:18;7.45;;;4.88;;
72573;SDS011;60603;52.548;13.420;2023-04-24T03:53:43;7.93;;;4.72;;
72573;SDS011;60603;52.548;13.420;2023-04-24T03:56:09;8.25;;;4.55;;
72573;SDS011;60603;52.548;13.420;2023-04-24T03:58:35;7.18;;;4.35;;
72573;SDS011;60603;52.548;13.420;2023-04-24T04:01:01;7.82;;;4.72;;
72573;SDS011;60603;52.548;13.420;2023-04-24T04:03:26;8.20;;;4.50;;
72573;SDS011;60603;52.548;13.420;2023-04-24T04:05:52;8.07;;;4.38;;
72573;SDS011;60603;52.548;13.420;2023-04-24T04:08:19;7.95;;;4.25;;
72573;SDS011;60603;52.548;13.420;2023-04-24T04:10:45;8.45;;;4.63;;
72573;SDS011;60603;52.548;13.420;2023-04-24T04:13:10;7.28;;;4.25;;
72573;SDS011;60603;52.548;13.420;2023-04-24T04:15:36;9.48;;;4.80;;
72573;SDS011;60603;52.548;13.420;2023-04-24T04:18:01;7.57;;;4.38;;
72573;SDS011;60603;52.548;13.420;2023-04-24T04:20:27;7.72;;;4.55;;
72573;SDS011;60603;52.548;13.420;2023-04-24T04:22:53;8.05;;;4.35;;
72573;SDS011;60603;52.548;13.420;2023-04-24T04:25:19;7.40;;;3.97;;
72573;SDS011;60603;52.548;13.420;2023-04-24T04:27:45;6.43;;;3.97;;
72573;SDS011;60603;52.548;13.420;2023-04-24T04:30:13;8.75;;;4.70;;
72573;SDS011;60603;52.548;13.420;2023-04-24T04:32:39;8.25;;;4.65;;
72573;SDS011;60603;52.548;13.420;2023-04-24T04:35:05;7.03;;;4.35;;
72573;SDS011;60603;52.548;13.420;2023-04-24T04:37:31;8.00;;;4.47;;
72573;SDS011;60603;52.548;13.420;2023-04-24T04:39:59;7.78;;;4.15;;
72573;SDS011;60603;52.548;13.420;2023-04-24T04:42:25;8.52;;;4.38;;
72573;SDS011;60603;52.548;13.420;2023-04-24T04:44:52;7.13;;;4.15;;
72573;SDS011;60603;52.548;13.420;2023-04-24T04:47:18;7.63;;;3.92;;
72573;SDS011;60603;52.548;13.420;2023-04-24T04:49:48;8.63;;;4.00;;
72573;SDS011;60603;52.548;13.420;2023-04-24T04:52:14;7.45;;;4.13;;
72573;SDS011;60603;52.548;13.420;2023-04-24T04:54:42;8.82;;;3.90;;
72573;SDS011;60603;52.548;13.420;2023-04-24T04:57:07;9.82;;;4.38;;
72573;SDS011;60603;52.548;13.420;2023-04-24T04:59:33;6.90;;;3.85;;
72573;SDS011;60603;52.548;13.420;2023-04-24T05:01:59;6.88;;;4.00;;
72573;SDS011;60603;52.548;13.420;2023-04-24T05:04:25;7.35;;;4.63;;
72573;SDS011;60603;52.548;13.420;2023-04-24T05:06:51;6.78;;;4.20;;
72573;SDS011;60603;52.548;13.420;2023-04-24T05:09:17;7.25;;;4.15;;
72573;SDS011;60603;52.548;13.420;2023-04-24T05:11:44;7.85;;;4.20;;
72573;SDS011;60603;52.548;13.420;2023-04-24T05:14:10;7.63;;;3.80;;
72573;SDS011;60603;52.548;13.420;2023-04-24T05:16:38;7.20;;;3.95;;
72573;SDS011;60603;52.548;13.420;2023-04-24T05:19:04;6.82;;;3.63;;
72573;SDS011;60603;52.548;13.420;2023-04-24T05:21:30;8.23;;;3.60;;
72573;SDS011;60603;52.548;13.420;2023-04-24T05:23:56;6.13;;;3.70;;
72573;SDS011;60603;52.548;13.420;2023-04-24T05:26:22;6.40;;;3.38;;
72573;SDS011;60603;52.548;13.420;2023-04-24T05:28:48;6.00;;;3.38;;
72573;SDS011;60603;52.548;13.420;2023-04-24T05:31:13;5.78;;;3.00;;
72573;SDS011;60603;52.548;13.420;2023-04-24T05:33:39;5.47;;;2.97;;
72573;SDS011;60603;52.548;13.420;2023-04-24T05:36:05;5.85;;;3.20;;
72573;SDS011;60603;52.548;13.420;2023-04-24T05:38:32;6.35;;;2.85;;
72573;SDS011;60603;52.548;13.420;2023-04-24T05:40:57;6.00;;;2.88;;
72573;SDS011;60603;52.548;13.420;2023-04-24T05:43:23;5.60;;;2.35;;
72573;SDS011;60603;52.548;13.420;2023-04-24T05:45:49;4.78;;;2.47;;
72573;SDS011;60603;52.548;13.420;2023-04-24T05:48:15;6.50;;;2.45;;
72573;SDS011;60603;52.548;13.420;2023-04-24T05:50:41;6.63;;;2.72;;
72573;SDS011;60603;52.548;13.420;2023-04-24T05:53:06;4.78;;;2.60;;
72573;SDS011;60603;52.548;13.420;2023-04-24T05:55:32;4.63;;;2.40;;
72573;SDS011;60603;52.548;13.420;2023-04-24T05:57:58;4.00;;;2.20;;
72573;SDS011;60603;52.548;13.420;2023-04-24T06:00:27;4.85;;;1.80;;
72573;SDS011;60603;52.548;13.420;2023-04-24T06:05:19;5.75;;;1.83;;
72573;SDS011;60603;52.548;13.420;2023-04-24T06:07:45;4.03;;;1.88;;
72573;SDS011;60603;52.548;13.420;2023-04-24T06:10:11;3.80;;;1.60;;
72573;SDS011;60603;52.548;13.420;2023-04-24T06:12:37;7.45;;;2.05;;
72573;SDS011;60603;52.548;13.420;2023-04-24T06:15:02;5.45;;;1.80;;
72573;SDS011;60603;52.548;13.420;2023-04-24T06:17:29;3.88;;;1.70;;
72573;SDS011;60603;52.548;13.420;2023-04-24T06:19:54;3.17;;;1.52;;
72573;SDS011;60603;52.548;13.420;2023-04-24T06:22:22;3.92;;;1.65;;
72573;SDS011;60603;52.548;13.420;2023-04-24T06:24:48;4.60;;;1.83;;
72573;SDS011;60603;52.548;13.420;2023-04-24T06:27:15;3.65;;;1.80;;
72573;SDS011;60603;52.548;13.420;2023-04-24T06:29:40;3.88;;;1.70;;
72573;SDS011;60603;52.548;13.420;2023-04-24T06:32:06;4.40;;;2.00;;
72573;SDS011;60603;52.548;13.420;2023-04-24T06:34:32;4.10;;;1.90;;
72573;SDS011;60603;52.548;13.420;2023-04-24T06:36:59;4.20;;;1.60;;
72573;SDS011;60603;52.548;13.420;2023-04-24T06:39:25;4.18;;;1.88;;
72573;SDS011;60603;52.548;13.420;2023-04-24T06:41:51;3.50;;;1.52;;
72573;SDS011;60603;52.548;13.420;2023-04-24T06:44:16;3.35;;;1.70;;
72573;SDS011;60603;52.548;13.420;2023-04-24T06:46:42;3.95;;;1.80;;
72573;SDS011;60603;52.548;13.420;2023-04-24T06:49:08;4.68;;;1.80;;
72573;SDS011;60603;52.548;13.420;2023-04-24T06:51:34;8.25;;;2.20;;
72573;SDS011;60603;52.548;13.420;2023-04-24T06:54:00;4.55;;;1.83;;
72573;SDS011;60603;52.548;13.420;2023-04-24T06:56:26;10.38;;;3.50;;
72573;SDS011;60603;52.548;13.420;2023-04-24T06:58:51;4.05;;;1.70;;
72573;SDS011;60603;52.548;13.420;2023-04-24T07:01:17;3.60;;;1.60;;
72573;SDS011;60603;52.548;13.420;2023-04-24T07:03:43;3.70;;;1.50;;
72573;SDS011;60603;52.548;13.420;2023-04-24T07:06:09;3.90;;;1.25;;
72573;SDS011;60603;52.548;13.420;2023-04-24T07:08:35;4.13;;;1.55;;
72573;SDS011;60603;52.548;13.420;2023-04-24T07:11:02;5.10;;;1.45;;
72573;SDS011;60603;52.548;13.420;2023-04-24T07:13:27;4.93;;;1.35;;
72573;SDS011;60603;52.548;13.420;2023-04-24T07:15:53;4.07;;;1.40;;
72573;SDS011;60603;52.548;13.420;2023-04-24T07:18:20;2.22;;;1.08;;
72573;SDS011;60603;52.548;13.420;2023-04-24T07:20:46;3.55;;;1.10;;
72573;SDS011;60603;52.548;13.420;2023-04-24T07:23:12;2.40;;;1.00;;
72573;SDS011;60603;52.548;13.420;2023-04-24T07:25:38;2.53;;;0.95;;
72573;SDS011;60603;52.548;13.420;2023-04-24T07:28:04;3.75;;;1.30;;
72573;SDS011;60603;52.548;13.420;2023-04-24T07:30:30;2.38;;;0.80;;
72573;SDS011;60603;52.548;13.420;2023-04-24T07:32:58;1.92;;;0.90;;
72573;SDS011;60603;52.548;13.420;2023-04-24T07:35:24;3.00;;;1.20;;
72573;SDS011;60603;52.548;13.420;2023-04-24T07:37:51;2.45;;;1.00;;
72573;SDS011;60603;52.548;13.420;2023-04-24T07:40:18;4.47;;;1.05;;
72573;SDS011;60603;52.548;13.420;2023-04-24T07:42:44;1.88;;;0.90;;
72573;SDS011;60603;52.548;13.420;2023-04-24T07:45:10;2.10;;;0.80;;
72573;SDS011;60603;52.548;13.420;2023-04-24T07:47:35;2.22;;;1.00;;
72573;SDS011;60603;52.548;13.420;2023-04-24T07:50:02;3.28;;;0.75;;
72573;SDS011;60603;52.548;13.420;2023-04-24T07:52:28;2.88;;;0.90;;
72573;SDS011;60603;52.548;13.420;2023-04-24T07:54:54;5.25;;;1.00;;
72573;SDS011;60603;52.548;13.420;2023-04-24T07:57:25;3.25;;;1.10;;
72573;SDS011;60603;52.548;13.420;2023-04-24T07:59:53;2.15;;;0.90;;
72573;SDS011;60603;52.548;13.420;2023-04-24T08:02:19;2.22;;;0.57;;
72573;SDS011;60603;52.548;13.420;2023-04-24T08:04:45;3.05;;;1.10;;
72573;SDS011;60603;52.548;13.420;2023-04-24T08:07:10;2.75;;;1.00;;
72573;SDS011;60603;52.548;13.420;2023-04-24T08:09:38;3.13;;;0.80;;
72573;SDS011;60603;52.548;13.420;2023-04-24T08:12:04;3.50;;;0.90;;
72573;SDS011;60603;52.548;13.420;2023-04-24T08:14:29;2.47;;;0.88;;
72573;SDS011;60603;52.548;13.420;2023-04-24T08:16:55;2.78;;;0.90;;
72573;SDS011;60603;52.548;13.420;2023-04-24T08:19:21;3.20;;;1.15;;
72573;SDS011;60603;52.548;13.420;2023-04-24T08:21:47;2.00;;;0.82;;
72573;SDS011;60603;52.548;13.420;2023-04-24T08:24:13;8.63;;;1.33;;
72573;SDS011;60603;52.548;13.420;2023-04-24T08:26:39;2.53;;;1.08;;
72573;SDS011;60603;52.548;13.420;2023-04-24T08:29:05;2.05;;;0.82;;
72573;SDS011;60603;52.548;13.420;2023-04-24T08:31:31;3.60;;;1.08;;
72573;SDS011;60603;52.548;13.420;2023-04-24T08:33:57;3.30;;;0.80;;
72573;SDS011;60603;52.548;13.420;2023-04-24T08:36:25;3.67;;;0.98;;
72573;SDS011;60603;52.548;13.420;2023-04-24T08:38:51;2.78;;;0.82;;
72573;SDS011;60603;52.548;13.420;2023-04-24T08:41:17;4.60;;;1.00;;
72573;SDS011;60603;52.548;13.420;2023-04-24T08:43:47;8.65;;;1.20;;
72573;SDS011;60603;52.548;13.420;2023-04-24T08:46:13;1.90;;;0.77;;
72573;SDS011;60603;52.548;13.420;2023-04-24T08:48:39;5.53;;;1.60;;
72573;SDS011;60603;52.548;13.420;2023-04-24T08:51:07;5.10;;;0.70;;
72573;SDS011;60603;52.548;13.420;2023-04-24T08:53:33;2.22;;;0.88;;
72573;SDS011;60603;52.548;13.420;2023-04-24T08:55:59;3.03;;;0.80;;
72573;SDS011;60603;52.548;13.420;2023-04-24T08:58:27;3.80;;;0.90;;
72573;SDS011;60603;52.548;13.420;2023-04-24T09:00:56;3.05;;;0.73;;
72573;SDS011;60603;52.548;13.420;2023-04-24T09:03:23;3.53;;;0.73;;
72573;SDS011;60603;52.548;13.420;2023-04-24T09:05:48;2.65;;;0.70;;
72573;SDS011;60603;52.548;13.420;2023-04-24T09:08:19;1.45;;;0.90;;
72573;SDS011;60603;52.548;13.420;2023-04-24T09:10:45;5.28;;;1.20;;
72573;SDS011;60603;52.548;13.420;2023-04-24T09:13:11;1.85;;;0.70;;
72573;SDS011;60603;52.548;13.420;2023-04-24T09:15:37;2.15;;;0.70;;
72573;SDS011;60603;52.548;13.420;2023-04-24T09:18:03;2.25;;;0.77;;
72573;SDS011;60603;52.548;13.420;2023-04-24T09:20:30;5.75;;;1.25;;
72573;SDS011;60603;52.548;13.420;2023-04-24T09:22:57;2.72;;;0.70;;
72573;SDS011;60603;52.548;13.420;2023-04-24T09:25:32;5.85;;;1.20;;
72573;SDS011;60603;52.548;13.420;2023-04-24T09:28:03;2.63;;;0.73;;
72573;SDS011;60603;52.548;13.420;2023-04-24T09:30:29;6.85;;;0.80;;
72573;SDS011;60603;52.548;13.420;2023-04-24T09:33:12;1.27;;;0.70;;
72573;SDS011;60603;52.548;13.420;2023-04-24T09:35:41;2.75;;;0.73;;
72573;SDS011;60603;52.548;13.420;2023-04-24T09:38:08;3.88;;;1.00;;
72573;SDS011;60603;52.548;13.420;2023-04-24T09:40:34;2.20;;;1.00;;
72573;SDS011;60603;52.548;13.420;2023-04-24T09:43:01;2.72;;;0.80;;
72573;SDS011;60603;52.548;13.420;2023-04-24T09:45:28;1.80;;;0.73;;
72573;SDS011;60603;52.548;13.420;2023-04-24T09:48:00;4.25;;;1.02;;
72573;SDS011;60603;52.548;13.420;2023-04-24T09:50:26;3.60;;;1.40;;
72573;SDS011;60603;52.548;13.420;2023-04-24T09:52:58;2.30;;;1.05;;
72573;SDS011;60603;52.548;13.420;2023-04-24T09:55:26;2.90;;;0.90;;
72573;SDS011;60603;52.548;13.420;2023-04-24T09:57:54;7.25;;;1.45;;
72573;SDS011;60603;52.548;13.420;2023-04-24T10:00:31;2.78;;;1.10;;
72573;SDS011;60603;52.548;13.420;2023-04-24T10:03:02;3.38;;;1.05;;
72573;SDS011;60603;52.548;13.420;2023-04-24T10:08:00;2.72;;;0.68;;
72573;SDS011;60603;52.548;13.420;2023-04-24T10:10:29;2.28;;;1.02;;
72573;SDS011;60603;52.548;13.420;2023-04-24T10:12:56;2.65;;;0.90;;
72573;SDS011;60603;52.548;13.420;2023-04-24T10:15:22;4.47;;;1.00;;
72573;SDS011;60603;52.548;13.420;2023-04-24T10:17:48;3.70;;;1.40;;
72573;SDS011;60603;52.548;13.420;2023-04-24T10:20:18;4.07;;;0.90;;
72573;SDS011;60603;52.548;13.420;2023-04-24T10:22:48;1.58;;;0.80;;
72573;SDS011;60603;52.548;13.420;2023-04-24T10:25:21;4.45;;;0.90;;
72573;SDS011;60603;52.548;13.420;2023-04-24T10:27:52;1.33;;;0.77;;
72573;SDS011;60603;52.548;13.420;2023-04-24T10:30:18;4.32;;;1.05;;
72573;SDS011;60603;52.548;13.420;2023-04-24T10:32:45;2.08;;;0.77;;
72573;SDS011;60603;52.548;13.420;2023-04-24T10:35:14;4.72;;;0.80;;
72573;SDS011;60603;52.548;13.420;2023-04-24T10:37:45;1.73;;;0.70;;
72573;SDS011;60603;52.548;13.420;2023-04-24T10:40:16;2.15;;;0.90;;
72573;SDS011;60603;52.548;13.420;2023-04-24T10:42:43;4.45;;;0.80;;
72573;SDS011;60603;52.548;13.420;2023-04-24T10:45:16;2.53;;;1.10;;
72573;SDS011;60603;52.548;13.420;2023-04-24T10:47:50;1.60;;;0.80;;
72573;SDS011;60603;52.548;13.420;2023-04-24T10:50:23;2.42;;;0.80;;
72573;SDS011;60603;52.548;13.420;2023-04-24T10:52:50;2.30;;;0.98;;
72573;SDS011;60603;52.548;13.420;2023-04-24T10:55:39;2.67;;;1.08;;
72573;SDS011;60603;52.548;13.420;2023-04-24T10:58:13;2.83;;;0.98;;
72573;SDS011;60603;52.548;13.420;2023-04-24T11:00:41;3.17;;;1.00;;
72573;SDS011;60603;52.548;13.420;2023-04-24T11:03:22;2.30;;;1.10;;
72573;SDS011;60603;52.548;13.420;2023-04-24T11:08:22;3.28;;;0.93;;
72573;SDS011;60603;52.548;13.420;2023-04-24T11:18:43;2.30;;;0.82;;
72573;SDS011;60603;52.548;13.420;2023-04-24T11:21:11;2.67;;;0.77;;
72573;SDS011;60603;52.548;13.420;2023-04-24T11:23:44;2.95;;;1.15;;
72573;SDS011;60603;52.548;13.420;2023-04-24T11:26:11;2.88;;;1.10;;
72573;SDS011;60603;52.548;13.420;2023-04-24T11:28:44;2.15;;;0.80;;
72573;SDS011;60603;52.548;13.420;2023-04-24T11:34:13;4.45;;;0.85;;
72573;SDS011;60603;52.548;13.420;2023-04-24T11:36:40;4.13;;;1.10;;
72573;SDS011;60603;52.548;13.420;2023-04-24T11:39:08;4.45;;;1.15;;
72573;SDS011;60603;52.548;13.420;2023-04-24T11:41:34;4.07;;;1.20;;
72573;SDS011;60603;52.548;13.420;2023-04-24T11:44:01;3.55;;;1.50;;
72573;SDS011;60603;52.548;13.420;2023-04-24T11:46:29;3.17;;;1.00;;
72573;SDS011;60603;52.548;13.420;2023-04-24T11:48:56;5.43;;;1.50;;
72573;SDS011;60603;52.548;13.420;2023-04-24T11:51:25;5.28;;;1.50;;
72573;SDS011;60603;52.548;13.420;2023-04-24T11:53:55;5.70;;;1.60;;
72573;SDS011;60603;52.548;13.420;2023-04-24T11:56:24;3.17;;;1.30;;
72573;SDS011;60603;52.548;13.420;2023-04-24T11:58:53;5.32;;;1.10;;
72573;SDS011;60603;52.548;13.420;2023-04-24T12:01:20;2.72;;;1.10;;
72573;SDS011;60603;52.548;13.420;2023-04-24T12:03:49;2.85;;;1.02;;
72573;SDS011;60603;52.548;13.420;2023-04-24T12:06:19;6.28;;;1.17;;
72573;SDS011;60603;52.548;13.420;2023-04-24T12:08:46;2.55;;;1.20;;
72573;SDS011;60603;52.548;13.420;2023-04-24T12:11:14;3.58;;;1.75;;
72573;SDS011;60603;52.548;13.420;2023-04-24T12:13:41;5.93;;;1.20;;
72573;SDS011;60603;52.548;13.420;2023-04-24T12:16:06;4.63;;;1.30;;
72573;SDS011;60603;52.548;13.420;2023-04-24T12:18:32;2.45;;;0.90;;
72573;SDS011;60603;52.548;13.420;2023-04-24T12:23:55;2.47;;;1.13;;
72573;SDS011;60603;52.548;13.420;2023-04-24T12:26:21;3.50;;;1.33;;
72573;SDS011;60603;52.548;13.420;2023-04-24T12:28:48;3.80;;;1.00;;
72573;SDS011;60603;52.548;13.420;2023-04-24T12:31:15;3.80;;;1.60;;
72573;SDS011;60603;52.548;13.420;2023-04-24T12:33:41;2.90;;;1.13;;
72573;SDS011;60603;52.548;13.420;2023-04-24T12:36:11;4.07;;;1.40;;
72573;SDS011;60603;52.548;13.420;2023-04-24T12:38:38;5.60;;;1.92;;
72573;SDS011;60603;52.548;13.420;2023-04-24T12:41:11;2.83;;;1.20;;
72573;SDS011;60603;52.548;13.420;2023-04-24T12:43:37;2.67;;;1.10;;
72573;SDS011;60603;52.548;13.420;2023-04-24T12:46:03;2.95;;;1.35;;
72573;SDS011;60603;52.548;13.420;2023-04-24T12:48:30;3.85;;;1.30;;
72573;SDS011;60603;52.548;13.420;2023-04-24T12:50:59;2.42;;;0.90;;
72573;SDS011;60603;52.548;13.420;2023-04-24T12:53:28;2.28;;;0.90;;
72573;SDS011;60603;52.548;13.420;2023-04-24T12:55:55;3.65;;;1.42;;
72573;SDS011;60603;52.548;13.420;2023-04-24T12:58:21;2.67;;;1.02;;
72573;SDS011;60603;52.548;13.420;2023-04-24T13:00:47;4.68;;;1.42;;
72573;SDS011;60603;52.548;13.420;2023-04-24T13:03:13;5.28;;;1.10;;
72573;SDS011;60603;52.548;13.420;2023-04-24T13:05:39;6.43;;;1.00;;
72573;SDS011;60603;52.548;13.420;2023-04-24T13:08:05;2.25;;;0.85;;
72573;SDS011;60603;52.548;13.420;2023-04-24T13:10:31;2.35;;;0.80;;
72573;SDS011;60603;52.548;13.420;2023-04-24T13:12:57;5.97;;;1.00;;
72573;SDS011;60603;52.548;13.420;2023-04-24T13:15:22;7.35;;;1.20;;
72573;SDS011;60603;52.548;13.420;2023-04-24T13:17:49;6.63;;;1.42;;
72573;SDS011;60603;52.548;13.420;2023-04-24T13:20:14;8.35;;;1.42;;
72573;SDS011;60603;52.548;13.420;2023-04-24T13:22:40;7.05;;;1.30;;
72573;SDS011;60603;52.548;13.420;2023-04-24T13:25:06;4.53;;;1.00;;
72573;SDS011;60603;52.548;13.420;2023-04-24T13:27:32;1.95;;;0.90;;
72573;SDS011;60603;52.548;13.420;2023-04-24T13:29:58;2.40;;;1.10;;
72573;SDS011;60603;52.548;13.420;2023-04-24T13:32:24;5.18;;;1.50;;
72573;SDS011;60603;52.548;13.420;2023-04-24T13:34:50;6.05;;;1.50;;
72573;SDS011;60603;52.548;13.420;2023-04-24T13:37:16;2.63;;;0.90;;
72573;SDS011;60603;52.548;13.420;2023-04-24T13:39:41;5.07;;;1.10;;
72573;SDS011;60603;52.548;13.420;2023-04-24T13:42:08;10.45;;;1.48;;
72573;SDS011;60603;52.548;13.420;2023-04-24T13:44:33;5.05;;;1.20;;
72573;SDS011;60603;52.548;13.420;2023-04-24T13:46:59;3.75;;;1.30;;
72573;SDS011;60603;52.548;13.420;2023-04-24T13:49:25;12.75;;;1.60;;
72573;SDS011;60603;52.548;13.420;2023-04-24T13:51:52;3.70;;;1.20;;
72573;SDS011;60603;52.548;13.420;2023-04-24T13:54:19;11.40;;;1.10;;
72573;SDS011;60603;52.548;13.420;2023-04-24T13:56:44;3.60;;;1.00;;
72573;SDS011;60603;52.548;13.420;2023-04-24T13:59:11;7.22;;;1.30;;
72573;SDS011;60603;52.548;13.420;2023-04-24T14:01:38;4.72;;;1.10;;
72573;SDS011;60603;52.548;13.420;2023-04-24T14:04:04;3.05;;;0.90;;
72573;SDS011;60603;52.548;13.420;2023-04-24T14:06:30;4.10;;;0.90;;
72573;SDS011;60603;52.548;13.420;2023-04-24T14:08:56;8.65;;;1.20;;
72573;SDS011;60603;52.548;13.420;2023-04-24T14:11:22;5.40;;;1.08;;
72573;SDS011;60603;52.548;13.420;2023-04-24T14:13:48;5.05;;;1.38;;
72573;SDS011;60603;52.548;13.420;2023-04-24T14:16:14;3.65;;;1.20;;
72573;SDS011;60603;52.548;13.420;2023-04-24T14:18:39;9.35;;;1.13;;
72573;SDS011;60603;52.548;13.420;2023-04-24T14:21:05;4.57;;;1.15;;
72573;SDS011;60603;52.548;13.420;2023-04-24T14:23:31;2.95;;;1.30;;
72573;SDS011;60603;52.548;13.420;2023-04-24T14:25:57;3.28;;;0.82;;
72573;SDS011;60603;52.548;13.420;2023-04-24T14:28:23;3.35;;;1.10;;
72573;SDS011;60603;52.548;13.420;2023-04-24T14:30:50;2.47;;;1.05;;
72573;SDS011;60603;52.548;13.420;2023-04-24T14:33:15;4.28;;;1.25;;
72573;SDS011;60603;52.548;13.420;2023-04-24T14:35:41;6.25;;;1.00;;
72573;SDS011;60603;52.548;13.420;2023-04-24T14:38:08;2.75;;;0.90;;
72573;SDS011;60603;52.548;13.420;2023-04-24T14:40:34;2.13;;;1.10;;
72573;SDS011;60603;52.548;13.420;2023-04-24T14:43:00;2.85;;;1.10;;
72573;SDS011;60603;52.548;13.420;2023-04-24T14:45:26;2.28;;;0.85;;
72573;SDS011;60603;52.548;13.420;2023-04-24T14:47:52;3.90;;;1.00;;
72573;SDS011;60603;52.548;13.420;2023-04-24T14:50:18;1.58;;;0.80;;